SCFR weather

Frutillar Airport
Frutillar, Los Lagos Region, Chile

Public forecast

Using degrees Celsius for public forecast. Weather courtesy of forecast.io.

Closest aviation weather report (METAR) to Frutillar Airport

Closest report is El Tepual Airport, 18.5 nm (34.3 km) S. Retrieved 2020/03/30 14:00 UTC (1 hour ago):

SCTE 301400Z 18013KT CAVOK 13/08 Q1023 NOSIG

Closest aviation forecast (TAF) to Frutillar Airport

Closest forecast is El Tepual Airport, 18.5 nm (34.3 km) S. Retrieved 2020/03/30 12:00 UTC (3 hours ago):

TAF SCTE 301033Z 3012/3112 19003KT CAVOK TX16/3018Z TN05/3108Z BECMG 3014/3016 19014KT BECMG 3104/3106 20004KT BKN012 TEMPO 3107/3112 OVC006